Brownson, Nebraska
Current Conditions -  °F | °C
As of 2:53 AM on Tuesday 27 Jan 2015 (Local Time) from KSNY Reporting Station
Clear Clear  
Wind Chill: 29°   Ceiling: Unl
Heat Index: 35°   Visibility: 10mi
Dew Point: 27°   Wind: 8mph
Humidity: 72%   Direction: 270°W
Pressure: 30.1"   Gusts: NA
Location:  41.108°N, 103.012°W
Report Text: KSNY 270953Z AUTO 27007KT 10SM CLR 02/M03 A3010 RMK AO2 SLP176 T00171028
Loading
Personal Weather Stations






























Interactive Weather Map New forecast layout! Learn more

10-Day Weather Forecast

Advertisements
Track Severe Weather on mobile